createdAt,value
2019-03-12T00:01:06.807Z,74.908447
2019-03-12T00:02:16.322Z,74.285889
2019-03-12T00:03:25.844Z,74.597168
2019-03-12T00:04:35.367Z,74.389648
2019-03-12T00:05:44.860Z,74.493408
2019-03-12T00:06:54.365Z,73.968506
2019-03-12T00:08:03.892Z,74.389648
2019-03-12T00:09:13.413Z,74.700928
2019-03-12T00:10:22.924Z,74.700928
2019-03-12T00:11:32.462Z,74.182129
2019-03-12T00:12:42.005Z,74.182129
2019-03-12T00:13:51.534Z,74.285889
2019-03-12T00:15:01.042Z,74.072266
2019-03-12T00:16:10.544Z,74.597168
2019-03-12T00:17:20.064Z,74.182129
2019-03-12T00:18:29.582Z,74.597168
2019-03-12T00:19:39.095Z,74.597168
2019-03-12T00:20:48.609Z,74.389648
2019-03-12T00:21:58.114Z,74.389648
2019-03-12T00:23:07.702Z,74.908447
2019-03-12T00:24:17.161Z,74.389648
2019-03-12T00:25:26.671Z,74.493408
2019-03-12T00:26:36.188Z,74.908447
2019-03-12T00:27:45.695Z,74.389648
2019-03-12T00:28:55.232Z,74.493408
2019-03-12T00:30:04.740Z,74.841309
2019-03-12T00:31:14.246Z,74.945068
2019-03-12T00:32:23.753Z,74.597168
2019-03-12T00:33:33.278Z,75.360107
2019-03-12T00:34:42.808Z,74.737549
2019-03-12T00:35:52.329Z,74.420166
2019-03-12T00:37:01.840Z,74.523926
2019-03-12T00:38:11.368Z,74.627686
2019-03-12T00:39:20.883Z,74.945068
2019-03-12T00:40:30.401Z,75.048828
2019-03-12T00:41:39.935Z,75.256348
2019-03-12T00:42:49.440Z,74.737549
2019-03-12T00:43:58.974Z,74.737549
2019-03-12T00:45:08.483Z,74.523926
2019-03-12T00:46:18.016Z,73.968506
2019-03-12T00:47:27.534Z,73.968506
2019-03-12T00:48:37.063Z,73.968506
2019-03-12T00:49:46.587Z,73.345947
2019-03-12T00:50:56.089Z,73.657227
2019-03-12T00:52:05.627Z,74.072266
2019-03-12T00:53:15.154Z,73.864746
2019-03-12T00:54:24.669Z,73.864746
2019-03-12T00:55:34.202Z,74.182129
2019-03-12T00:56:43.726Z,74.072266
2019-03-12T00:57:53.251Z,74.072266
2019-03-12T00:59:02.877Z,74.072266
2019-03-12T01:00:12.291Z,74.072266
2019-03-12T01:01:21.797Z,74.285889
2019-03-12T01:02:31.321Z,74.316406
2019-03-12T01:03:40.851Z,74.316406
2019-03-12T01:04:50.373Z,74.420166
2019-03-12T01:05:59.920Z,74.627686
2019-03-12T01:07:09.454Z,74.737549
2019-03-12T01:08:18.980Z,74.627686
2019-03-12T01:09:28.498Z,74.627686
2019-03-12T01:10:38.058Z,74.523926
2019-03-12T01:11:47.574Z,74.841309
2019-03-12T01:12:57.086Z,74.420166
2019-03-12T01:14:06.615Z,74.737549
2019-03-12T01:15:16.127Z,74.945068
2019-03-12T01:16:25.635Z,76.300049
2019-03-12T01:17:35.145Z,76.300049
2019-03-12T01:18:44.685Z,76.300049
2019-03-12T01:19:54.206Z,77.026367
2019-03-12T01:21:03.720Z,78.106689
2019-03-12T01:22:13.227Z,79.046631
2019-03-12T01:23:22.737Z,79.046631
2019-03-12T01:24:32.266Z,78.210449
2019-03-12T01:25:41.794Z,77.79541
2019-03-12T01:26:51.308Z,78.521729
2019-03-12T01:28:00.833Z,78.106689
2019-03-12T01:29:10.365Z,77.270508
2019-03-12T01:30:19.882Z,77.478027
2019-03-12T01:31:29.387Z,77.270508
2019-03-12T01:32:38.901Z,77.69165
2019-03-12T01:33:48.430Z,78.210449
2019-03-12T01:34:57.958Z,78.625488
2019-03-12T01:36:07.494Z,77.89917
2019-03-12T01:37:16.992Z,77.69165
2019-03-12T01:38:26.522Z,77.374268
2019-03-12T01:39:36.054Z,76.959229
2019-03-12T01:40:45.572Z,77.89917
2019-03-12T01:41:55.106Z,78.625488
2019-03-12T01:43:04.614Z,78.625488
2019-03-12T01:44:14.136Z,78.417969
2019-03-12T01:45:23.652Z,78.210449
2019-03-12T01:46:33.164Z,78.210449
2019-03-12T01:47:42.680Z,78.314209
2019-03-12T01:48:52.265Z,78.00293
2019-03-12T01:50:01.785Z,77.478027
2019-03-12T01:51:11.330Z,76.959229
2019-03-12T01:52:20.862Z,77.166748
2019-03-12T01:53:30.373Z,78.00293
2019-03-12T01:54:39.904Z,78.729248
2019-03-12T01:55:49.415Z,78.521729
2019-03-12T01:56:58.930Z,78.521729
2019-03-12T01:58:08.449Z,78.210449
2019-03-12T01:59:18.979Z,78.00293
2019-03-12T02:00:28.492Z,78.417969
2019-03-12T02:01:38.008Z,78.210449
2019-03-12T02:02:47.562Z,78.729248
2019-03-12T02:03:57.098Z,78.210449
2019-03-12T02:05:06.614Z,77.270508
2019-03-12T02:06:16.128Z,76.647949
2019-03-12T02:07:25.635Z,76.959229
2019-03-12T02:08:35.181Z,77.062988
2019-03-12T02:09:44.718Z,76.855469
2019-03-12T02:10:54.248Z,76.544189
2019-03-12T02:12:03.770Z,76.959229
2019-03-12T02:13:13.284Z,76.434326
2019-03-12T02:14:22.817Z,76.019287
2019-03-12T02:15:32.338Z,76.123047
2019-03-12T02:16:41.932Z,75.915527
2019-03-12T02:17:51.375Z,75.396729
2019-03-12T02:19:00.909Z,75.396729
2019-03-12T02:20:10.428Z,75.708008
2019-03-12T02:21:19.944Z,75.292969
2019-03-12T02:22:29.538Z,75.048828
2019-03-12T02:23:39.059Z,74.523926
2019-03-12T02:24:52.851Z,74.420166
2019-03-12T02:25:58.072Z,74.316406
2019-03-12T02:27:07.575Z,74.212646
2019-03-12T02:28:17.087Z,74.841309
2019-03-12T02:29:26.638Z,74.523926
2019-03-12T02:30:36.175Z,74.212646
2019-03-12T02:31:45.687Z,74.212646
2019-03-12T02:32:55.250Z,73.901367
2019-03-12T02:34:05.754Z,74.005127
2019-03-12T02:35:15.258Z,73.486328
2019-03-12T02:36:24.824Z,73.382568
2019-03-12T02:37:35.334Z,73.590088
2019-03-12T02:38:44.855Z,73.590088
2019-03-12T02:39:54.440Z,73.693848
2019-03-12T02:41:03.953Z,73.693848
2019-03-12T02:42:13.459Z,74.005127
2019-03-12T02:43:22.981Z,73.693848
2019-03-12T02:44:32.534Z,73.901367
2019-03-12T02:45:42.048Z,74.041748
2019-03-12T02:46:51.559Z,74.249268
2019-03-12T02:48:01.074Z,74.041748
2019-03-12T02:49:10.582Z,74.041748
2019-03-12T02:50:20.089Z,74.249268
2019-03-12T02:51:29.654Z,74.145508
2019-03-12T02:52:39.177Z,74.041748
2019-03-12T02:53:48.764Z,74.353027
2019-03-12T02:54:58.258Z,74.456787
2019-03-12T02:56:07.766Z,74.041748
2019-03-12T02:57:17.519Z,73.828125
2019-03-12T02:58:27.037Z,73.724365
2019-03-12T02:59:36.588Z,74.041748
2019-03-12T03:00:46.104Z,74.353027
2019-03-12T03:01:55.629Z,73.931885
2019-03-12T03:03:05.359Z,74.249268
2019-03-12T03:04:14.884Z,74.145508
2019-03-12T03:05:24.440Z,74.145508
2019-03-12T03:06:33.967Z,74.041748
2019-03-12T03:07:43.467Z,74.041748
2019-03-12T03:08:52.989Z,74.145508
2019-03-12T03:10:03.042Z,74.041748
2019-03-12T03:11:12.569Z,74.249268
2019-03-12T03:12:22.080Z,74.353027
2019-03-12T03:13:31.585Z,74.768066
2019-03-12T03:14:41.130Z,74.249268
2019-03-12T03:15:50.642Z,74.145508
2019-03-12T03:17:00.163Z,74.041748
2019-03-12T03:18:09.686Z,74.145508
2019-03-12T03:19:19.183Z,74.145508
2019-03-12T03:20:28.721Z,74.249268
2019-03-12T03:21:38.236Z,74.353027
2019-03-12T03:22:47.743Z,74.353027
2019-03-12T03:23:57.274Z,74.456787
2019-03-12T03:25:06.807Z,74.456787
2019-03-12T03:26:16.317Z,74.456787
2019-03-12T03:27:28.902Z,74.249268
2019-03-12T03:28:35.318Z,74.383545
2019-03-12T03:29:44.869Z,74.487305
2019-03-12T03:30:54.374Z,74.700928
2019-03-12T03:32:03.914Z,74.700928
2019-03-12T03:33:13.389Z,74.487305
2019-03-12T03:34:27.585Z,74.487305
2019-03-12T03:35:33.418Z,74.700928
2019-03-12T03:36:42.931Z,74.908447
2019-03-12T03:37:52.434Z,74.908447
2019-03-12T03:39:01.981Z,75.219727
2019-03-12T03:40:11.509Z,75.115967
2019-03-12T03:41:21.012Z,74.908447
2019-03-12T03:42:30.516Z,75.012207
2019-03-12T03:43:40.030Z,75.115967
2019-03-12T03:44:49.557Z,75.115967
2019-03-12T03:45:59.067Z,75.115967
2019-03-12T03:47:08.579Z,75.012207
2019-03-12T03:48:18.084Z,75.012207
2019-03-12T03:49:27.597Z,75.115967
2019-03-12T03:50:37.145Z,75.323486
2019-03-12T03:51:46.641Z,75.219727
2019-03-12T03:52:56.150Z,75.115967
2019-03-12T03:54:05.655Z,75.323486
2019-03-12T03:55:15.174Z,75.219727
2019-03-12T03:56:24.690Z,75.427246
2019-03-12T03:57:34.200Z,75.427246
2019-03-12T03:58:43.723Z,75.531006
2019-03-12T03:59:53.304Z,75.323486
2019-03-12T04:01:02.835Z,75.323486
2019-03-12T04:02:12.348Z,75.219727
2019-03-12T04:03:22.863Z,75.323486
2019-03-12T04:04:32.396Z,75.427246
2019-03-12T04:05:41.920Z,75.219727
2019-03-12T04:06:52.422Z,75.427246
2019-03-12T04:08:01.923Z,75.427246
2019-03-12T04:09:11.528Z,75.634766
2019-03-12T04:10:21.066Z,75.323486
2019-03-12T04:11:30.580Z,75.531006
2019-03-12T04:12:40.095Z,75.531006
2019-03-12T04:13:49.607Z,75.531006
2019-03-12T04:14:59.167Z,75.952148
2019-03-12T04:16:08.678Z,75.531006
2019-03-12T04:17:18.185Z,75.744629
2019-03-12T04:18:27.700Z,75.531006
2019-03-12T04:19:37.221Z,75.634766
2019-03-12T04:20:46.751Z,75.531006
2019-03-12T04:21:56.261Z,75.219727
2019-03-12T04:23:05.792Z,75.219727
2019-03-12T04:24:15.323Z,75.323486
2019-03-12T04:25:24.898Z,75.531006
2019-03-12T04:26:34.331Z,75.744629
2019-03-12T04:27:43.882Z,75.744629
2019-03-12T04:28:53.346Z,75.634766
2019-03-12T04:30:02.869Z,75.531006
2019-03-12T04:31:12.404Z,75.531006
2019-03-12T04:32:21.917Z,75.634766
2019-03-12T04:33:31.428Z,75.427246
2019-03-12T04:34:40.930Z,75.531006
2019-03-12T04:35:50.452Z,75.323486
2019-03-12T04:36:59.972Z,75.115967
2019-03-12T04:38:09.477Z,75.427246
2019-03-12T04:39:18.989Z,75.427246
2019-03-12T04:40:28.518Z,75.531006
2019-03-12T04:41:38.038Z,75.219727
2019-03-12T04:42:47.558Z,74.908447
2019-03-12T04:43:57.071Z,75.012207
2019-03-12T04:45:06.583Z,75.115967
2019-03-12T04:46:16.121Z,75.323486
2019-03-12T04:47:25.618Z,75.115967
2019-03-12T04:48:35.138Z,75.634766
2019-03-12T04:49:44.677Z,75.115967
2019-03-12T04:50:54.189Z,75.323486
2019-03-12T04:52:03.720Z,74.700928
2019-03-12T04:53:13.234Z,74.597168
2019-03-12T04:54:22.741Z,74.041748
2019-03-12T04:55:32.263Z,74.249268
2019-03-12T04:56:41.769Z,74.279785
2019-03-12T04:57:51.278Z,74.353027
2019-03-12T04:59:00.791Z,74.560547
2019-03-12T05:00:10.294Z,74.700928
2019-03-12T05:01:19.822Z,74.487305
2019-03-12T05:02:29.348Z,74.383545
2019-03-12T05:03:38.852Z,74.908447
2019-03-12T05:04:48.364Z,74.700928
2019-03-12T05:05:58.907Z,74.700928
2019-03-12T05:07:08.417Z,74.804688
2019-03-12T05:08:17.924Z,74.383545
2019-03-12T05:09:27.444Z,74.353027
2019-03-12T05:10:36.956Z,74.597168
2019-03-12T05:11:46.524Z,74.700928
2019-03-12T05:12:56.032Z,74.279785
2019-03-12T05:14:05.550Z,74.041748
2019-03-12T05:15:15.052Z,73.931885
2019-03-12T05:16:24.580Z,73.931885
2019-03-12T05:17:34.100Z,73.931885
2019-03-12T05:18:43.615Z,74.145508
2019-03-12T05:19:53.128Z,73.724365
2019-03-12T05:21:02.652Z,73.828125
2019-03-12T05:22:12.180Z,73.931885
2019-03-12T05:23:21.696Z,73.931885
2019-03-12T05:24:31.211Z,73.724365
2019-03-12T05:25:40.745Z,73.724365
2019-03-12T05:26:50.582Z,73.516846
2019-03-12T05:28:00.074Z,73.516846
2019-03-12T05:29:09.586Z,73.309326
2019-03-12T05:30:19.096Z,73.413086
2019-03-12T05:31:28.635Z,73.620605
2019-03-12T05:32:38.145Z,74.041748
2019-03-12T05:33:47.654Z,73.828125
2019-03-12T05:34:57.157Z,73.724365
2019-03-12T05:36:06.675Z,73.828125
2019-03-12T05:37:16.189Z,74.145508
2019-03-12T05:38:25.693Z,73.828125
2019-03-12T05:39:35.196Z,73.724365
2019-03-12T05:40:44.710Z,73.931885
2019-03-12T05:41:54.232Z,72.998047
2019-03-12T05:43:03.736Z,73.101807
2019-03-12T05:44:13.241Z,73.205566
2019-03-12T05:45:22.744Z,73.516846
2019-03-12T05:46:32.275Z,73.413086
2019-03-12T05:47:41.815Z,73.516846
2019-03-12T05:48:51.327Z,73.828125
2019-03-12T05:50:00.834Z,73.724365
2019-03-12T05:51:10.346Z,73.413086
2019-03-12T05:52:19.850Z,73.620605
2019-03-12T05:53:29.359Z,73.309326
2019-03-12T05:54:38.870Z,72.894287
2019-03-12T05:55:48.377Z,73.205566
2019-03-12T05:56:57.916Z,73.516846
2019-03-12T05:58:07.425Z,72.998047
2019-03-12T05:59:16.930Z,72.784424
2019-03-12T06:00:26.440Z,73.101807
2019-03-12T06:01:35.956Z,72.784424
2019-03-12T06:02:45.463Z,72.998047
2019-03-12T06:03:54.972Z,72.894287
2019-03-12T06:05:04.476Z,72.894287
2019-03-12T06:06:14.006Z,73.309326
2019-03-12T06:07:23.516Z,73.101807
2019-03-12T06:08:33.030Z,73.205566
2019-03-12T06:09:42.538Z,72.998047
2019-03-12T06:10:52.050Z,72.576904
2019-03-12T06:12:01.565Z,72.894287
2019-03-12T06:13:11.072Z,72.894287
2019-03-12T06:14:20.582Z,73.486328
2019-03-12T06:15:30.087Z,73.065186
2019-03-12T06:16:39.604Z,73.205566
2019-03-12T06:17:49.117Z,72.650146
2019-03-12T06:18:58.626Z,72.753906
2019-03-12T06:20:08.148Z,72.961426
2019-03-12T06:21:17.698Z,72.857666
2019-03-12T06:22:27.209Z,72.961426
2019-03-12T06:23:36.735Z,73.065186
2019-03-12T06:24:46.515Z,72.753906
2019-03-12T06:25:56.034Z,73.168945
2019-03-12T06:27:05.560Z,72.961426
2019-03-12T06:28:15.066Z,72.857666
2019-03-12T06:29:24.587Z,72.650146
2019-03-12T06:30:34.096Z,72.442627
2019-03-12T06:31:43.643Z,72.753906
2019-03-12T06:32:53.152Z,72.753906
2019-03-12T06:34:02.660Z,72.723389
2019-03-12T06:35:12.176Z,72.723389
2019-03-12T06:36:21.663Z,72.619629
2019-03-12T06:37:31.206Z,72.827148
2019-03-12T06:38:40.723Z,72.406006
2019-03-12T06:39:50.242Z,71.887207
2019-03-12T06:40:59.745Z,71.990967
2019-03-12T06:42:09.258Z,71.783447
2019-03-12T06:43:18.888Z,71.887207
2019-03-12T06:44:28.386Z,71.990967
2019-03-12T06:45:37.936Z,71.679688
2019-03-12T06:46:47.540Z,71.679688
2019-03-12T06:47:57.071Z,71.783447
2019-03-12T06:49:06.578Z,71.856689
2019-03-12T06:50:16.095Z,71.960449
2019-03-12T06:51:25.615Z,71.960449
2019-03-12T06:52:35.122Z,71.539307
2019-03-12T06:53:44.642Z,71.435547
2019-03-12T06:54:54.147Z,71.435547
2019-03-12T06:56:03.671Z,71.435547
2019-03-12T06:57:13.174Z,71.331787
2019-03-12T06:58:22.691Z,71.228027
2019-03-12T06:59:32.200Z,71.435547
2019-03-12T07:00:41.823Z,71.124268
2019-03-12T07:01:51.327Z,71.124268
2019-03-12T07:03:00.832Z,71.09375
2019-03-12T07:04:10.338Z,71.09375
2019-03-12T07:05:19.856Z,70.574951
2019-03-12T07:06:29.361Z,70.574951
2019-03-12T07:07:41.532Z,71.09375
2019-03-12T07:08:49.360Z,70.782471
2019-03-12T07:09:58.866Z,70.471191
2019-03-12T07:11:08.389Z,70.574951
2019-03-12T07:12:17.898Z,70.153809
2019-03-12T07:13:27.405Z,70.43457
2019-03-12T07:14:36.918Z,70.123291
2019-03-12T07:15:46.443Z,70.019531
2019-03-12T07:16:55.945Z,69.604492
2019-03-12T07:18:05.453Z,69.189453
2019-03-12T07:19:14.954Z,69.085693
2019-03-12T07:20:24.478Z,69.366455
2019-03-12T07:21:33.986Z,68.945312
2019-03-12T07:22:43.492Z,68.841553
2019-03-12T07:23:53.020Z,68.841553
2019-03-12T07:25:02.529Z,68.188477
2019-03-12T07:26:12.051Z,68.054199
2019-03-12T07:27:21.560Z,67.016602
2019-03-12T07:28:31.092Z,66.674805
2019-03-12T07:29:40.665Z,66.436768
2019-03-12T07:30:50.197Z,65.911865
2019-03-12T07:31:59.710Z,65.496826
2019-03-12T07:33:09.202Z,65.911865
2019-03-12T07:34:18.688Z,66.119385
2019-03-12T07:35:28.213Z,66.015625
2019-03-12T07:36:37.721Z,66.015625
2019-03-12T07:37:47.218Z,65.838623
2019-03-12T07:38:56.717Z,66.07666
2019-03-12T07:40:06.220Z,66.912842
2019-03-12T07:41:24.830Z,67.193604
2019-03-12T07:42:26.212Z,67.120361
2019-03-12T07:43:35.714Z,67.565918
2019-03-12T07:44:45.247Z,67.565918
2019-03-12T07:45:54.736Z,67.877197
2019-03-12T07:47:04.240Z,67.980957
2019-03-12T07:48:13.742Z,67.773438
2019-03-12T07:49:23.250Z,67.877197
2019-03-12T07:50:32.758Z,67.669678
2019-03-12T07:51:42.276Z,67.462158
2019-03-12T07:52:51.780Z,67.773438
2019-03-12T07:54:01.287Z,66.912842
2019-03-12T07:55:10.798Z,66.778564
2019-03-12T07:56:20.318Z,65.838623
2019-03-12T07:57:29.824Z,65.838623
2019-03-12T07:58:39.336Z,65.393066
2019-03-12T07:59:48.842Z,65.289307
2019-03-12T08:00:58.361Z,64.355469
2019-03-12T08:02:07.863Z,64.538574
2019-03-12T08:03:17.366Z,64.715576
2019-03-12T08:04:26.867Z,63.781738
2019-03-12T08:05:36.370Z,62.8479
2019-03-12T08:06:45.891Z,62.95166
2019-03-12T08:07:55.390Z,62.506104
2019-03-12T08:09:04.945Z,61.987305
2019-03-12T08:10:14.526Z,62.402344
2019-03-12T08:11:24.122Z,62.506104
2019-03-12T08:12:34.434Z,62.060547
2019-03-12T08:13:43.185Z,61.157227
2019-03-12T08:14:52.695Z,61.810303
2019-03-12T08:16:02.215Z,62.121582
2019-03-12T08:17:11.733Z,62.194824
2019-03-12T08:18:21.239Z,61.468506
2019-03-12T08:19:30.745Z,60.949707
2019-03-12T08:20:40.248Z,59.606934
2019-03-12T08:21:50.038Z,59.606934
2019-03-12T08:22:59.303Z,59.80835
2019-03-12T08:24:08.805Z,60.015869
2019-03-12T08:25:19.291Z,59.710693
2019-03-12T08:26:28.807Z,60.510254
2019-03-12T08:27:38.317Z,59.161377
2019-03-12T08:28:47.835Z,57.684326
2019-03-12T08:29:57.348Z,58.074951
2019-03-12T08:31:06.871Z,57.220459
2019-03-12T08:32:16.377Z,55.767822
2019-03-12T08:33:26.869Z,56.469727
2019-03-12T08:34:36.369Z,55.743408
2019-03-12T08:35:45.884Z,54.91333
2019-03-12T08:36:55.404Z,54.91333
2019-03-12T08:38:04.914Z,54.272461
2019-03-12T08:39:14.420Z,54.376221
2019-03-12T08:40:23.930Z,53.881836
2019-03-12T08:41:33.435Z,54.504395
2019-03-12T08:42:53.955Z,54.504395
2019-03-12T08:43:53.419Z,54.089355
2019-03-12T08:45:02.920Z,53.076172
2019-03-12T08:46:13.426Z,53.985596
2019-03-12T08:47:22.922Z,52.203369
2019-03-12T08:48:32.427Z,51.477051
2019-03-12T08:49:41.932Z,51.373291
2019-03-12T08:50:51.438Z,51.171875
2019-03-12T08:52:01.064Z,51.275635
2019-03-12T08:53:10.508Z,51.477051
2019-03-12T08:54:21.414Z,51.99585
2019-03-12T08:55:29.532Z,51.763916
2019-03-12T08:56:39.050Z,50.195312
2019-03-12T08:57:48.552Z,48.150635
2019-03-12T08:58:58.064Z,49.127197
2019-03-12T09:00:07.580Z,49.639893
2019-03-12T09:01:17.080Z,49.926758
2019-03-12T09:02:26.603Z,47.943115
2019-03-12T09:03:36.114Z,48.76709
2019-03-12T09:04:45.612Z,48.748779
2019-03-12T09:05:55.113Z,48.413086
2019-03-12T09:07:05.278Z,49.01123
2019-03-12T09:08:14.145Z,47.625732
2019-03-12T09:09:23.651Z,48.095703
2019-03-12T09:10:33.163Z,45.849609
2019-03-12T09:11:42.674Z,47.546387
2019-03-12T09:12:52.179Z,48.577881
2019-03-12T09:14:01.691Z,48.059082
2019-03-12T09:15:11.198Z,47.442627
2019-03-12T09:16:20.703Z,47.900391
2019-03-12T09:17:30.241Z,49.139404
2019-03-12T09:18:39.740Z,49.755859
2019-03-12T09:19:49.262Z,49.01123
2019-03-12T09:20:58.780Z,48.803711
2019-03-12T09:22:08.298Z,48.291016
2019-03-12T09:23:17.802Z,48.577881
2019-03-12T09:24:27.340Z,48.083496
2019-03-12T09:25:37.813Z,48.748779
2019-03-12T09:26:47.334Z,50.054932
2019-03-12T09:27:56.968Z,51.733398
2019-03-12T09:29:06.608Z,51.885986
2019-03-12T09:30:16.145Z,53.051758
2019-03-12T09:31:25.641Z,53.564453
2019-03-12T09:32:35.167Z,53.643799
2019-03-12T09:33:44.668Z,53.851318
2019-03-12T09:34:54.178Z,53.851318
2019-03-12T09:36:03.684Z,53.22876
2019-03-12T09:37:13.209Z,53.22876
2019-03-12T09:38:22.722Z,53.308105
2019-03-12T09:39:32.229Z,52.380371
2019-03-12T09:40:41.738Z,51.342773
2019-03-12T09:41:51.256Z,51.525879
2019-03-12T09:43:00.776Z,51.580811
2019-03-12T09:44:10.290Z,50.134277
2019-03-12T09:45:19.797Z,50.445557
2019-03-12T09:46:29.289Z,50.396729
2019-03-12T09:47:38.802Z,49.884033
2019-03-12T09:48:48.309Z,49.884033
2019-03-12T09:49:57.820Z,50.006104
2019-03-12T09:51:07.323Z,49.804688
2019-03-12T09:52:16.841Z,49.206543
2019-03-12T09:53:26.349Z,49.847412
2019-03-12T09:54:35.856Z,50.054932
2019-03-12T09:55:45.380Z,49.664307
2019-03-12T09:56:54.894Z,49.456787
2019-03-12T09:58:04.412Z,49.768066
2019-03-12T09:59:13.919Z,49.871826
2019-03-12T10:00:23.432Z,49.249268
2019-03-12T10:01:32.938Z,50.10376
2019-03-12T10:02:42.459Z,50.823975
2019-03-12T10:03:51.964Z,49.249268
2019-03-12T10:05:01.473Z,49.456787
2019-03-12T10:06:10.980Z,49.310303
2019-03-12T10:07:20.504Z,48.748779
2019-03-12T10:08:30.037Z,48.00415
2019-03-12T10:09:39.541Z,46.533203
2019-03-12T10:10:49.048Z,46.307373
2019-03-12T10:11:58.574Z,46.923828
2019-03-12T10:13:08.108Z,46.282959
2019-03-12T10:14:17.621Z,46.038818
2019-03-12T10:15:27.137Z,45.623779
2019-03-12T10:16:36.642Z,44.86084
2019-03-12T10:17:46.160Z,43.438721
2019-03-12T10:18:55.695Z,44.390869
2019-03-12T10:20:05.192Z,44.616699
2019-03-12T10:21:14.705Z,44.921875
2019-03-12T10:22:24.224Z,44.390869
2019-03-12T10:23:33.739Z,44.20166
2019-03-12T10:24:43.255Z,45.458984
2019-03-12T10:25:52.761Z,45.562744
2019-03-12T10:27:02.279Z,45.788574
2019-03-12T10:28:11.804Z,44.921875
2019-03-12T10:29:21.318Z,45.294189
2019-03-12T10:30:30.839Z,44.262695
2019-03-12T10:31:41.349Z,44.287109
2019-03-12T10:32:50.879Z,45.068359
2019-03-12T10:34:00.392Z,45.19043
2019-03-12T10:35:09.897Z,46.038818
2019-03-12T10:36:19.492Z,46.807861
2019-03-12T10:37:28.942Z,47.711182
2019-03-12T10:38:38.452Z,47.735596
2019-03-12T10:39:47.971Z,47.631836
2019-03-12T10:40:57.475Z,47.943115
2019-03-12T10:42:06.986Z,48.55957
2019-03-12T10:43:16.497Z,48.66333
2019-03-12T10:44:26.022Z,48.974609
2019-03-12T10:45:35.527Z,49.389648
2019-03-12T10:46:45.057Z,48.791504
2019-03-12T10:47:54.560Z,46.807861
2019-03-12T10:49:04.066Z,46.929932
2019-03-12T10:50:13.578Z,47.344971
2019-03-12T10:51:23.114Z,46.911621
2019-03-12T10:52:32.629Z,46.496582
2019-03-12T10:53:42.170Z,46.496582
2019-03-12T10:54:51.685Z,46.929932
2019-03-12T10:56:01.197Z,47.44873
2019-03-12T10:57:10.705Z,46.600342
2019-03-12T10:58:20.226Z,47.381592
2019-03-12T10:59:29.746Z,45.788574
2019-03-12T11:00:39.245Z,45.050049
2019-03-12T11:01:48.758Z,44.720459
2019-03-12T11:02:58.277Z,44.07959
2019-03-12T11:04:07.786Z,42.822266
2019-03-12T11:05:17.293Z,42.803955
2019-03-12T11:06:26.802Z,42.803955
2019-03-12T11:07:36.316Z,41.75415
2019-03-12T11:08:45.839Z,42.266846
2019-03-12T11:09:55.351Z,41.137695
2019-03-12T11:11:04.861Z,42.248535
2019-03-12T11:12:14.375Z,40.625
2019-03-12T11:13:23.912Z,40.72876
2019-03-12T11:14:33.412Z,41.52832
2019-03-12T11:15:42.923Z,40.95459
2019-03-12T11:16:52.425Z,41.876221
2019-03-12T11:18:01.960Z,41.033936
2019-03-12T11:19:11.485Z,41.119385
2019-03-12T11:20:20.984Z,40.911865
2019-03-12T11:21:30.493Z,40.808105
2019-03-12T11:22:39.997Z,41.259766
2019-03-12T11:23:49.519Z,41.796875
2019-03-12T11:24:59.027Z,41.815186
2019-03-12T11:26:08.534Z,42.022705
2019-03-12T11:27:18.050Z,42.553711
2019-03-12T11:28:27.557Z,42.675781
2019-03-12T11:29:37.065Z,41.589355
2019-03-12T11:30:46.572Z,40.930176
2019-03-12T11:31:56.080Z,40.39917
2019-03-12T11:33:05.588Z,40.667725
2019-03-12T11:34:15.122Z,39.605713
2019-03-12T11:35:24.626Z,38.787842
2019-03-12T11:36:35.137Z,38.787842
2019-03-12T11:37:44.683Z,37.554932
2019-03-12T11:38:54.176Z,38.354492
2019-03-12T11:40:03.727Z,37.554932
2019-03-12T11:41:13.203Z,38.494873
2019-03-12T11:42:22.741Z,38.720703
2019-03-12T11:43:32.277Z,39.025879
2019-03-12T11:44:41.749Z,38.409424
2019-03-12T11:45:51.276Z,38.275146
2019-03-12T11:47:00.812Z,39.074707
2019-03-12T11:48:10.447Z,36.59668
2019-03-12T11:49:20.122Z,35.864258
2019-03-12T11:50:29.410Z,37.139893
2019-03-12T11:51:38.872Z,36.49292
2019-03-12T11:52:54.077Z,34.759521
2019-03-12T11:53:58.884Z,34.741211
2019-03-12T11:55:08.396Z,34.143066
2019-03-12T11:56:17.898Z,35.168457
2019-03-12T11:57:27.404Z,34.570312
2019-03-12T11:58:37.094Z,35.284424
2019-03-12T11:59:46.482Z,34.741211
2019-03-12T12:00:55.990Z,34.844971
2019-03-12T12:02:05.500Z,34.143066
2019-03-12T12:03:15.004Z,34.82666
2019-03-12T12:04:24.540Z,32.550049
2019-03-12T12:05:34.050Z,31.311035
2019-03-12T12:06:43.811Z,32.769775
2019-03-12T12:07:53.409Z,32.684326
2019-03-12T12:09:02.592Z,32.580566
2019-03-12T12:10:12.221Z,32.989502
2019-03-12T12:11:21.641Z,33.380127
2019-03-12T12:12:31.148Z,31.921387
2019-03-12T12:13:40.669Z,30.670166
2019-03-12T12:14:50.198Z,29.840088
2019-03-12T12:15:59.713Z,29.138184
2019-03-12T12:17:10.249Z,30.175781
2019-03-12T12:18:19.743Z,30.889893
2019-03-12T12:19:29.253Z,30.26123
2019-03-12T12:20:38.769Z,30.639648
2019-03-12T12:21:48.275Z,30.01709
2019-03-12T12:22:57.798Z,29.998779
2019-03-12T12:24:07.317Z,31.311035
2019-03-12T12:25:16.835Z,29.925537
2019-03-12T12:26:26.358Z,30.944824
2019-03-12T12:27:35.860Z,30.36499
2019-03-12T12:28:45.371Z,29.852295
2019-03-12T12:29:54.908Z,29.138184
2019-03-12T12:31:04.416Z,29.315186
2019-03-12T12:32:13.920Z,29.467773
2019-03-12T12:33:23.448Z,27.496338
2019-03-12T12:34:32.987Z,28.283691
2019-03-12T12:35:42.494Z,28.747559
2019-03-12T12:36:51.996Z,27.01416
2019-03-12T12:38:01.513Z,24.481201
2019-03-12T12:39:11.040Z,26.293945
2019-03-12T12:40:21.592Z,26.403809
2019-03-12T12:41:31.199Z,24.987793
2019-03-12T12:42:40.769Z,25.891113
2019-03-12T12:43:50.436Z,26.483154
2019-03-12T12:45:00.064Z,24.694824
2019-03-12T12:46:09.663Z,24.914551
2019-03-12T12:47:19.230Z,26.165771
2019-03-12T12:48:28.833Z,26.367188
2019-03-12T12:49:38.397Z,26.556396
2019-03-12T12:51:01.808Z,25.848389
2019-03-12T12:51:58.401Z,25.439453
2019-03-12T12:53:07.911Z,26.251221
2019-03-12T12:54:17.427Z,25.671387
2019-03-12T12:55:26.954Z,26.287842
2019-03-12T12:56:36.466Z,26.556396
2019-03-12T12:57:45.973Z,24.920654
2019-03-12T12:58:55.561Z,25.384521
2019-03-12T13:00:05.093Z,23.55957
2019-03-12T13:01:14.603Z,23.693848
2019-03-12T13:02:24.121Z,24.780273
2019-03-12T13:03:33.631Z,25.500488
2019-03-12T13:04:43.174Z,25.695801
2019-03-12T13:05:55.367Z,26.074219
2019-03-12T13:07:02.228Z,26.78833
2019-03-12T13:08:11.714Z,24.328613
2019-03-12T13:09:21.245Z,24.145508
2019-03-12T13:10:30.766Z,25.085449
2019-03-12T13:11:40.279Z,24.6521
2019-03-12T13:12:49.799Z,24.554443
2019-03-12T13:13:59.322Z,24.493408
2019-03-12T13:15:08.853Z,24.078369